Inglewood, Florida
Current Conditions -  °F | °C
As of 8:35 PM on Thursday 18 Dec 2014 (Local Time) from KVNC Reporting Station
Clear Clear  
Wind Chill: 15°   Ceiling: Unl
Heat Index: 15°   Visibility: 10mi
Dew Point: 13°   Wind: 5mph
Humidity: 88%   Direction: 10°N
Pressure: 30.13"   Gusts: NA
Location:  26.9253°N, 82.3009°W
Report Text: KVNC 190135Z AUTO 01004KT 10SM CLR 15/13 A3013 RMK AO2 TSNO
Loading
Personal Weather Stations






























Interactive Weather Map New forecast layout! Learn more

10-Day Weather Forecast

Advertisements
Track Severe Weather on mobile